createdAt,value
2022-11-25T00:01:31.078Z,24.08
2022-11-25T00:03:59.393Z,23.10
2022-11-25T00:06:29.434Z,23.17
2022-11-25T00:08:59.736Z,23.85
2022-11-25T00:11:27.785Z,23.58
2022-11-25T00:13:57.288Z,23.83
2022-11-25T00:16:26.431Z,23.13
2022-11-25T00:18:56.463Z,22.70
2022-11-25T00:21:26.657Z,24.52
2022-11-25T00:24:03.900Z,23.25
2022-11-25T00:26:32.845Z,23.70
2022-11-25T00:29:03.538Z,24.50
2022-11-25T00:31:34.187Z,24.02
2022-11-25T00:34:02.545Z,24.30
2022-11-25T00:36:32.703Z,23.77
2022-11-25T00:39:07.100Z,24.42
2022-11-25T00:41:53.239Z,23.55
2022-11-25T00:44:38.396Z,23.58
2022-11-25T00:49:35.977Z,23.88
2022-11-25T00:52:04.409Z,24.27
2022-11-25T00:54:32.872Z,22.75
2022-11-25T00:57:00.323Z,23.92
2022-11-25T00:59:28.760Z,23.58
2022-11-25T01:01:56.351Z,24.33
2022-11-25T01:04:24.089Z,23.42
2022-11-25T01:06:51.448Z,23.02
2022-11-25T01:09:18.988Z,24.88
2022-11-25T01:11:46.341Z,23.83
2022-11-25T01:14:13.877Z,23.80
2022-11-25T01:16:41.255Z,24.67
2022-11-25T01:19:11.386Z,23.08
2022-11-25T01:21:38.969Z,24.60
2022-11-25T01:24:07.434Z,23.25
2022-11-25T01:26:35.956Z,24.30
2022-11-25T01:29:06.127Z,23.27
2022-11-25T01:31:36.105Z,24.00
2022-11-25T01:34:11.478Z,23.95
2022-11-25T01:36:38.868Z,23.85
2022-11-25T01:39:06.424Z,23.15
2022-11-25T01:41:35.500Z,23.23
2022-11-25T01:44:13.703Z,23.23
2022-11-25T01:46:52.943Z,23.30
2022-11-25T01:49:39.384Z,24.17
2022-11-25T01:52:12.480Z,23.13
2022-11-25T01:54:46.848Z,23.90
2022-11-25T01:57:20.936Z,24.27
2022-11-25T01:59:52.235Z,23.97
2022-11-25T02:02:20.996Z,24.48
2022-11-25T02:04:49.187Z,22.98
2022-11-25T02:07:27.278Z,23.85
2022-11-25T02:09:56.015Z,23.67
2022-11-25T02:12:24.064Z,24.35
2022-11-25T02:14:55.040Z,24.05
2022-11-25T02:17:22.829Z,23.10
2022-11-25T02:20:13.699Z,23.77
2022-11-25T02:23:16.412Z,23.88
2022-11-25T02:25:45.533Z,23.20
2022-11-25T02:28:19.221Z,23.50
2022-11-25T02:30:47.187Z,23.10
2022-11-25T02:33:15.270Z,24.05
2022-11-25T02:35:44.492Z,24.67
2022-11-25T02:38:23.874Z,22.92
2022-11-25T02:40:54.383Z,23.98
2022-11-25T02:43:21.784Z,23.65
2022-11-25T02:45:55.368Z,24.10
2022-11-25T02:48:39.733Z,24.83
2022-11-25T02:51:13.965Z,22.95
2022-11-25T02:53:41.899Z,22.90
2022-11-25T02:56:11.463Z,24.90
2022-11-25T02:58:40.277Z,24.17
2022-11-25T03:01:09.149Z,23.00
2022-11-25T03:03:37.418Z,23.77
2022-11-25T03:06:05.669Z,23.20
2022-11-25T03:08:33.041Z,23.17
2022-11-25T03:11:00.793Z,23.63
2022-11-25T03:13:29.150Z,23.88
2022-11-25T03:15:56.799Z,24.00
2022-11-25T03:18:24.319Z,23.00
2022-11-25T03:20:53.318Z,23.23
2022-11-25T03:23:21.676Z,23.23
2022-11-25T03:25:49.595Z,24.48
2022-11-25T03:28:17.094Z,23.02
2022-11-25T03:30:44.776Z,23.80
2022-11-25T03:33:12.047Z,24.25
2022-11-25T03:35:39.684Z,23.58
2022-11-25T03:38:07.034Z,24.55
2022-11-25T03:40:34.987Z,23.38
2022-11-25T03:43:02.280Z,23.85
2022-11-25T03:45:29.935Z,22.88
2022-11-25T03:47:57.219Z,24.65
2022-11-25T03:50:24.747Z,24.73
2022-11-25T03:52:52.105Z,23.40
2022-11-25T03:55:20.391Z,24.15
2022-11-25T03:57:47.708Z,24.05
2022-11-25T04:00:15.468Z,23.98
2022-11-25T04:02:42.835Z,23.83
2022-11-25T04:05:10.503Z,23.40
2022-11-25T04:07:37.819Z,24.25
2022-11-25T04:10:06.011Z,24.13
2022-11-25T04:12:48.625Z,23.55
2022-11-25T04:15:17.442Z,22.58
2022-11-25T04:17:44.796Z,23.10
2022-11-25T04:20:14.130Z,23.95
2022-11-25T04:22:41.851Z,23.58
2022-11-25T04:25:10.220Z,23.48
2022-11-25T04:27:37.643Z,24.00
2022-11-25T04:30:06.924Z,23.63
2022-11-25T04:32:34.277Z,24.33
2022-11-25T04:35:01.879Z,23.85
2022-11-25T04:37:29.248Z,23.77
2022-11-25T04:39:56.796Z,23.40
2022-11-25T04:42:33.021Z,23.95
2022-11-25T04:45:22.036Z,24.42
2022-11-25T04:47:49.549Z,23.75
2022-11-25T04:50:20.552Z,23.60
2022-11-25T04:52:47.897Z,24.42
2022-11-25T04:55:15.892Z,23.92
2022-11-25T04:57:43.135Z,23.52
2022-11-25T05:00:11.383Z,22.33
2022-11-25T05:02:39.752Z,23.83
2022-11-25T05:05:08.005Z,23.17
2022-11-25T05:07:35.372Z,23.08
2022-11-25T05:10:03.239Z,23.38
2022-11-25T05:12:30.708Z,24.20
2022-11-25T05:14:58.444Z,23.52
2022-11-25T05:17:29.046Z,22.92
2022-11-25T05:19:56.935Z,23.65
2022-11-25T05:22:28.083Z,22.42
2022-11-25T05:24:56.287Z,24.15
2022-11-25T05:27:24.603Z,23.45
2022-11-25T05:29:56.016Z,22.90
2022-11-25T05:32:24.133Z,22.67
2022-11-25T05:34:51.999Z,22.88
2022-11-25T05:37:24.153Z,22.90
2022-11-25T05:39:52.278Z,22.77
2022-11-25T05:42:19.881Z,23.88
2022-11-25T05:44:47.497Z,23.67
2022-11-25T05:47:14.706Z,23.65
2022-11-25T05:49:42.286Z,22.05
2022-11-25T05:52:09.998Z,23.65
2022-11-25T05:54:37.715Z,24.27
2022-11-25T05:57:05.296Z,22.48
2022-11-25T05:59:32.875Z,22.83
2022-11-25T06:02:00.333Z,22.63
2022-11-25T06:04:27.973Z,24.42
2022-11-25T06:06:55.339Z,23.27
2022-11-25T06:09:22.912Z,22.92
2022-11-25T06:11:50.267Z,22.85
2022-11-25T06:14:18.123Z,23.27
2022-11-25T06:16:45.644Z,22.83
2022-11-25T06:19:13.227Z,23.52
2022-11-25T06:21:40.565Z,23.30
2022-11-25T06:24:08.087Z,23.35
2022-11-25T06:26:35.408Z,23.00
2022-11-25T06:29:03.097Z,23.75
2022-11-25T06:31:31.081Z,23.02
2022-11-25T06:33:58.651Z,23.63
2022-11-25T06:36:26.007Z,23.38
2022-11-25T06:38:54.424Z,22.80
2022-11-25T06:41:23.175Z,23.08
2022-11-25T06:43:50.878Z,23.30
2022-11-25T06:46:24.922Z,23.88
2022-11-25T06:48:54.093Z,23.75
2022-11-25T06:51:21.510Z,22.85
2022-11-25T06:53:49.068Z,23.30
2022-11-25T06:56:27.728Z,23.27
2022-11-25T06:58:56.328Z,22.95
2022-11-25T07:01:28.944Z,23.17
2022-11-25T07:04:00.712Z,23.20
2022-11-25T07:06:28.382Z,23.67
2022-11-25T07:08:56.768Z,24.33
2022-11-25T07:11:25.150Z,23.70
2022-11-25T07:13:56.084Z,24.48
2022-11-25T07:16:23.598Z,23.17
2022-11-25T07:18:51.315Z,23.70
2022-11-25T07:21:21.733Z,23.90
2022-11-25T07:23:50.229Z,24.20
2022-11-25T07:26:23.047Z,24.15
2022-11-25T07:28:52.559Z,23.50
2022-11-25T07:31:24.805Z,23.38
2022-11-25T07:33:59.898Z,24.00
2022-11-25T07:36:28.544Z,23.67
2022-11-25T07:38:58.808Z,22.70
2022-11-25T07:41:28.068Z,23.90
2022-11-25T07:44:02.301Z,22.73
2022-11-25T07:46:41.189Z,23.77
2022-11-25T07:49:11.853Z,23.65
2022-11-25T07:51:42.076Z,24.10
2022-11-25T07:54:12.704Z,25.13
2022-11-25T07:56:41.945Z,26.55
2022-11-25T07:59:13.652Z,27.23
2022-11-25T08:01:41.628Z,27.63
2022-11-25T08:04:18.121Z,26.90
2022-11-25T08:06:49.800Z,26.13
2022-11-25T08:09:20.335Z,28.05
2022-11-25T08:11:48.236Z,26.58
2022-11-25T08:14:16.397Z,26.85
2022-11-25T08:16:43.871Z,25.67
2022-11-25T08:19:16.655Z,24.83
2022-11-25T08:21:44.565Z,24.23
2022-11-25T08:24:16.067Z,24.58
2022-11-25T08:26:43.860Z,24.33
2022-11-25T08:29:14.739Z,25.00
2022-11-25T08:31:43.105Z,24.35
2022-11-25T08:34:18.659Z,25.98
2022-11-25T08:39:44.096Z,24.00
2022-11-25T08:42:06.714Z,25.70
2022-11-25T08:44:35.665Z,25.02
2022-11-25T08:47:03.074Z,25.60
2022-11-25T08:49:33.795Z,25.33
2022-11-25T08:52:04.348Z,25.58
2022-11-25T08:54:32.664Z,26.30
2022-11-25T08:57:00.706Z,25.70
2022-11-25T08:59:28.410Z,25.55
2022-11-25T09:01:55.823Z,25.75
2022-11-25T09:04:23.417Z,25.77
2022-11-25T09:06:50.851Z,25.45
2022-11-25T09:09:18.598Z,24.35
2022-11-25T09:11:46.094Z,25.05
2022-11-25T09:14:14.412Z,24.65
2022-11-25T09:16:41.851Z,25.75
2022-11-25T09:19:09.891Z,25.55
2022-11-25T09:21:37.193Z,25.88
2022-11-25T09:24:04.769Z,24.40
2022-11-25T09:26:36.669Z,25.75
2022-11-25T09:29:05.464Z,24.92
2022-11-25T09:31:32.725Z,24.27
2022-11-25T09:34:00.522Z,24.63
2022-11-25T09:36:28.359Z,24.80
2022-11-25T09:38:55.951Z,24.60
2022-11-25T09:42:27.931Z,24.40
2022-11-25T09:45:35.923Z,24.55
2022-11-25T09:48:29.646Z,24.63
2022-11-25T09:51:18.165Z,23.48
2022-11-25T09:53:51.477Z,24.65
2022-11-25T09:57:00.084Z,23.80
2022-11-25T09:59:41.446Z,23.88
2022-11-25T10:02:20.312Z,23.67
2022-11-25T10:04:54.623Z,22.70
2022-11-25T10:07:30.080Z,23.65
2022-11-25T10:10:01.380Z,23.15
2022-11-25T10:12:38.130Z,23.63
2022-11-25T10:15:15.927Z,23.25
2022-11-25T10:17:54.108Z,22.85
2022-11-25T10:20:21.535Z,22.88
2022-11-25T10:23:00.976Z,22.95
2022-11-25T10:25:31.600Z,23.75
2022-11-25T10:28:02.451Z,21.65
2022-11-25T10:30:42.055Z,21.90
2022-11-25T10:33:25.232Z,22.55
2022-11-25T10:36:15.840Z,21.58
2022-11-25T10:39:13.188Z,21.73
2022-11-25T10:42:01.809Z,21.40
2022-11-25T10:44:35.787Z,21.45
2022-11-25T10:47:18.363Z,20.65
2022-11-25T10:49:59.637Z,21.17
2022-11-25T10:52:30.847Z,20.20
2022-11-25T10:55:16.843Z,20.10
2022-11-25T10:57:44.589Z,20.40
2022-11-25T11:00:27.272Z,20.27
2022-11-25T11:02:55.770Z,20.10
2022-11-25T11:05:28.728Z,19.17
2022-11-25T11:08:13.786Z,18.85
2022-11-25T11:10:41.401Z,19.63
2022-11-25T11:13:33.044Z,18.15
2022-11-25T11:16:00.759Z,19.05
2022-11-25T11:18:37.001Z,18.80
2022-11-25T11:21:08.301Z,18.20
2022-11-25T11:23:53.624Z,17.95
2022-11-25T11:29:02.014Z,17.42
2022-11-25T11:31:39.697Z,17.70
2022-11-25T11:34:39.728Z,17.83
2022-11-25T11:37:55.499Z,18.15
2022-11-25T11:40:46.542Z,17.33
2022-11-25T11:43:37.898Z,16.45
2022-11-25T11:46:18.852Z,16.75
2022-11-25T11:48:56.476Z,15.90
2022-11-25T11:51:39.023Z,16.58
2022-11-25T11:54:21.803Z,16.67
2022-11-25T11:57:00.437Z,16.80
2022-11-25T11:59:46.803Z,15.73
2022-11-25T12:02:28.196Z,16.90
2022-11-25T12:05:01.599Z,15.57
2022-11-25T12:07:51.682Z,17.45
2022-11-25T12:10:37.992Z,15.93
2022-11-25T12:13:32.674Z,16.02
2022-11-25T12:16:15.713Z,15.43
2022-11-25T12:18:55.454Z,15.70
2022-11-25T12:21:29.159Z,15.70
2022-11-25T12:24:26.252Z,17.05
2022-11-25T12:27:12.845Z,17.90
2022-11-25T12:29:43.476Z,18.95
2022-11-25T12:32:40.160Z,21.60
2022-11-25T12:35:10.335Z,20.20
2022-11-25T12:37:46.854Z,19.67
2022-11-25T12:40:18.944Z,20.40
2022-11-25T12:42:48.970Z,18.30
2022-11-25T12:45:21.776Z,18.65
2022-11-25T12:47:50.357Z,18.80
2022-11-25T12:50:26.929Z,19.05
2022-11-25T12:53:02.632Z,17.65
2022-11-25T12:55:31.460Z,17.48
2022-11-25T12:58:00.181Z,18.23
2022-11-25T13:00:42.309Z,17.73
2022-11-25T13:03:25.306Z,17.10
2022-11-25T13:06:23.181Z,16.20
2022-11-25T13:08:55.704Z,16.60
2022-11-25T13:11:34.476Z,16.67
2022-11-25T13:14:26.057Z,15.38
2022-11-25T13:16:55.958Z,15.82
2022-11-25T13:19:24.479Z,16.27
2022-11-25T13:22:08.900Z,16.33
2022-11-25T13:24:42.732Z,15.27
2022-11-25T13:27:30.747Z,15.95
2022-11-25T13:30:00.030Z,14.63
2022-11-25T13:32:37.732Z,15.05
2022-11-25T13:35:24.633Z,15.18
2022-11-25T13:37:52.734Z,14.73
2022-11-25T13:40:21.867Z,14.15
2022-11-25T13:42:51.156Z,14.18
2022-11-25T13:45:31.650Z,14.55
2022-11-25T13:48:21.139Z,14.07
2022-11-25T13:53:39.817Z,13.75
2022-11-25T13:56:28.758Z,14.48
2022-11-25T13:59:11.218Z,13.80
2022-11-25T14:01:52.510Z,14.07
2022-11-25T14:04:46.929Z,13.60
2022-11-25T14:07:39.457Z,13.25
2022-11-25T14:10:25.347Z,13.70
2022-11-25T14:13:11.637Z,12.75
2022-11-25T14:16:01.099Z,13.25
2022-11-25T14:19:16.852Z,12.38
2022-11-25T14:21:47.250Z,12.90
2022-11-25T14:24:26.697Z,12.90
2022-11-25T14:26:56.395Z,12.55
2022-11-25T14:29:30.250Z,12.75
2022-11-25T14:32:10.436Z,12.90
2022-11-25T14:34:49.846Z,12.98
2022-11-25T14:37:26.083Z,12.80
2022-11-25T14:40:07.656Z,12.73
2022-11-25T14:42:43.282Z,11.55
2022-11-25T14:45:30.286Z,12.57
2022-11-25T14:47:57.847Z,11.98
2022-11-25T14:50:35.778Z,12.18
2022-11-25T14:53:08.873Z,11.75
2022-11-25T14:55:37.066Z,12.48
2022-11-25T14:58:04.560Z,11.68
2022-11-25T15:00:32.265Z,13.07
2022-11-25T15:03:02.827Z,12.50
2022-11-25T15:05:37.287Z,12.30
2022-11-25T15:08:13.208Z,12.27
2022-11-25T15:10:58.893Z,12.00
2022-11-25T15:13:35.865Z,12.10
2022-11-25T15:16:07.947Z,12.60
2022-11-25T15:18:35.677Z,12.50
2022-11-25T15:21:04.154Z,11.98
2022-11-25T15:23:36.942Z,11.63
2022-11-25T15:26:22.582Z,11.98
2022-11-25T15:29:02.222Z,11.32
2022-11-25T15:31:33.617Z,11.90
2022-11-25T15:34:04.016Z,11.82
2022-11-25T15:36:33.191Z,12.20
2022-11-25T15:39:19.117Z,11.32
2022-11-25T15:41:49.375Z,11.48
2022-11-25T15:44:22.544Z,11.43
2022-11-25T15:47:05.894Z,11.60
2022-11-25T15:49:35.870Z,11.75
2022-11-25T15:52:09.301Z,10.98
2022-11-25T15:54:44.759Z,11.13
2022-11-25T15:57:33.057Z,11.60
2022-11-25T16:00:00.348Z,11.65
2022-11-25T16:02:37.420Z,10.68
2022-11-25T16:05:14.413Z,11.73
2022-11-25T16:07:51.698Z,11.23
2022-11-25T16:10:24.771Z,10.25
2022-11-25T16:13:29.986Z,10.85
2022-11-25T16:16:15.933Z,10.38
2022-11-25T16:19:01.767Z,10.93
2022-11-25T16:21:35.286Z,11.63
2022-11-25T16:24:06.513Z,11.93
2022-11-25T16:26:51.256Z,11.23
2022-11-25T16:29:26.220Z,12.20
2022-11-25T16:31:53.634Z,11.43
2022-11-25T16:34:24.233Z,11.65
2022-11-25T16:36:51.629Z,11.75
2022-11-25T16:39:20.548Z,12.05
2022-11-25T16:41:58.834Z,11.80
2022-11-25T16:44:27.947Z,11.82
2022-11-25T16:46:55.752Z,12.23
2022-11-25T16:49:24.171Z,11.90
2022-11-25T16:51:53.065Z,11.77
2022-11-25T16:54:22.407Z,12.88
2022-11-25T16:56:52.970Z,12.70
2022-11-25T16:59:29.880Z,12.35
2022-11-25T17:01:59.132Z,11.93
2022-11-25T17:04:27.093Z,12.50
2022-11-25T17:07:30.500Z,12.95
2022-11-25T17:09:44.919Z,13.63
2022-11-25T17:12:18.039Z,13.52
2022-11-25T17:14:48.022Z,12.75
2022-11-25T17:17:24.429Z,12.60
2022-11-25T17:19:53.250Z,13.07
2022-11-25T17:22:23.617Z,12.60
2022-11-25T17:24:51.546Z,13.13
2022-11-25T17:27:24.018Z,13.00
2022-11-25T17:29:52.444Z,13.18
2022-11-25T17:32:20.395Z,13.43
2022-11-25T17:34:48.097Z,13.52
2022-11-25T17:37:17.845Z,14.32
2022-11-25T17:39:45.461Z,13.40
2022-11-25T17:42:18.398Z,14.40
2022-11-25T17:44:49.943Z,14.57
2022-11-25T17:47:20.296Z,14.60
2022-11-25T17:49:49.393Z,13.88
2022-11-25T17:52:17.602Z,15.02
2022-11-25T17:54:45.344Z,14.60
2022-11-25T17:57:17.395Z,16.50
2022-11-25T17:59:44.976Z,14.52
2022-11-25T18:02:21.028Z,15.75
2022-11-25T18:04:48.858Z,15.60
2022-11-25T18:07:16.709Z,15.45
2022-11-25T18:09:45.719Z,15.48
2022-11-25T18:12:18.646Z,16.30
2022-11-25T18:14:46.476Z,17.33
2022-11-25T18:17:18.754Z,17.17
2022-11-25T18:19:54.623Z,17.38
2022-11-25T18:22:24.053Z,17.67
2022-11-25T18:24:53.068Z,17.27
2022-11-25T18:27:30.986Z,17.58
2022-11-25T18:29:58.888Z,17.83
2022-11-25T18:32:26.240Z,17.95
2022-11-25T18:34:53.847Z,17.85
2022-11-25T18:37:21.660Z,17.48
2022-11-25T18:39:49.262Z,17.52
2022-11-25T18:42:25.535Z,17.30
2022-11-25T18:44:56.445Z,17.67
2022-11-25T18:47:24.041Z,17.30
2022-11-25T18:49:55.857Z,17.35
2022-11-25T18:52:24.785Z,17.45
2022-11-25T18:54:52.398Z,17.20
2022-11-25T18:57:20.145Z,17.52
2022-11-25T19:00:10.327Z,17.65
2022-11-25T19:02:35.583Z,17.63
2022-11-25T19:05:15.097Z,17.50
2022-11-25T19:07:42.476Z,17.63
2022-11-25T19:10:13.728Z,17.65
2022-11-25T19:12:44.550Z,17.88
2022-11-25T19:15:19.120Z,17.00
2022-11-25T19:17:50.052Z,17.88
2022-11-25T19:20:22.163Z,17.00
2022-11-25T19:22:49.615Z,17.00
2022-11-25T19:25:18.365Z,17.70
2022-11-25T19:27:49.860Z,17.30
2022-11-25T19:30:23.281Z,17.83
2022-11-25T19:32:54.452Z,17.30
2022-11-25T19:35:36.014Z,16.58
2022-11-25T19:38:21.659Z,17.42
2022-11-25T19:40:49.412Z,17.58
2022-11-25T19:43:16.710Z,17.13
2022-11-25T19:45:45.081Z,17.58
2022-11-25T19:48:15.445Z,16.15
2022-11-25T19:50:44.853Z,16.58
2022-11-25T19:53:21.172Z,15.88
2022-11-25T19:55:49.623Z,16.60
2022-11-25T19:58:16.982Z,16.55
2022-11-25T20:00:47.576Z,16.80
2022-11-25T20:03:24.953Z,16.20
2022-11-25T20:05:54.433Z,17.63
2022-11-25T20:08:25.628Z,17.25
2022-11-25T20:10:54.347Z,15.80
2022-11-25T20:13:26.032Z,16.88
2022-11-25T20:15:55.611Z,16.30
2022-11-25T20:18:26.072Z,14.82
2022-11-25T20:21:03.323Z,15.45
2022-11-25T20:23:40.072Z,15.82
2022-11-25T20:26:16.945Z,16.08
2022-11-25T20:28:45.623Z,15.52
2022-11-25T20:31:14.208Z,15.73
2022-11-25T20:33:41.740Z,15.13
2022-11-25T20:36:17.143Z,16.08
2022-11-25T20:38:48.789Z,15.70
2022-11-25T20:41:18.425Z,15.40
2022-11-25T20:43:49.513Z,14.90
2022-11-25T20:46:21.784Z,15.02
2022-11-25T20:48:55.150Z,15.70
2022-11-25T20:51:24.209Z,15.93
2022-11-25T20:53:55.136Z,15.73
2022-11-25T20:56:24.680Z,15.10
2022-11-25T20:58:51.949Z,15.25
2022-11-25T21:01:19.960Z,15.98
2022-11-25T21:03:49.088Z,16.38
2022-11-25T21:06:28.729Z,15.80
2022-11-25T21:08:59.247Z,15.43
2022-11-25T21:11:27.942Z,15.85
2022-11-25T21:13:55.324Z,16.38
2022-11-25T21:16:23.208Z,16.27
2022-11-25T21:18:50.741Z,15.60
2022-11-25T21:21:28.631Z,16.13
2022-11-25T21:23:56.263Z,15.95
2022-11-25T21:26:26.516Z,16.13
2022-11-25T21:28:54.855Z,15.25
2022-11-25T21:31:24.952Z,15.45
2022-11-25T21:33:58.848Z,15.48
2022-11-25T21:36:31.173Z,15.15
2022-11-25T21:39:08.575Z,14.15
2022-11-25T21:41:36.536Z,16.52
2022-11-25T21:44:06.295Z,15.90
2022-11-25T21:46:34.163Z,15.77
2022-11-25T21:49:01.658Z,15.95
2022-11-25T21:51:29.280Z,16.35
2022-11-25T21:53:57.092Z,15.13
2022-11-25T21:56:28.249Z,16.75
2022-11-25T21:58:56.207Z,15.57
2022-11-25T22:01:24.076Z,15.15
2022-11-25T22:03:52.087Z,16.65
2022-11-25T22:06:25.820Z,16.48
2022-11-25T22:08:54.941Z,16.07
2022-11-25T22:11:31.126Z,15.75
2022-11-25T22:13:59.624Z,16.02
2022-11-25T22:16:33.106Z,15.00
2022-11-25T22:19:01.117Z,16.10
2022-11-25T22:21:29.372Z,15.80
2022-11-25T22:23:56.783Z,16.13
2022-11-25T22:26:29.836Z,15.35
2022-11-25T22:28:59.790Z,16.08
2022-11-25T22:31:28.260Z,15.32
2022-11-25T22:33:55.847Z,15.68
2022-11-25T22:36:35.216Z,15.70
2022-11-25T22:39:24.494Z,15.82
2022-11-25T22:41:56.239Z,16.63
2022-11-25T22:44:25.291Z,15.48
2022-11-25T22:46:53.081Z,15.38
2022-11-25T22:49:26.852Z,17.17
2022-11-25T22:51:55.270Z,16.25
2022-11-25T22:54:23.295Z,15.85
2022-11-25T22:56:51.687Z,15.25
2022-11-25T22:59:18.953Z,15.75
2022-11-25T23:01:47.036Z,16.73
2022-11-25T23:04:18.038Z,15.65
2022-11-25T23:06:46.842Z,15.88
2022-11-25T23:09:19.321Z,16.40
2022-11-25T23:11:47.909Z,16.88
2022-11-25T23:14:15.349Z,16.10
2022-11-25T23:16:43.755Z,16.23
2022-11-25T23:19:18.531Z,16.73
2022-11-25T23:21:46.218Z,16.48
2022-11-25T23:24:15.888Z,16.23
2022-11-25T23:26:44.288Z,16.65
2022-11-25T23:29:11.814Z,16.58
2022-11-25T23:31:40.366Z,15.88
2022-11-25T23:34:08.305Z,16.48
2022-11-25T23:36:45.875Z,16.15
2022-11-25T23:39:21.312Z,16.98
2022-11-25T23:41:49.762Z,16.45
2022-11-25T23:44:25.620Z,16.20
2022-11-25T23:46:55.586Z,16.25
2022-11-25T23:49:27.599Z,16.48
2022-11-25T23:51:59.587Z,17.23
2022-11-25T23:54:41.060Z,16.77
2022-11-25T23:57:31.212Z,16.15
2022-11-25T23:59:59.295Z,15.98
